sensor_id;sensor_type;location;lat;lon;timestamp;temperature;humidity
66271;DHT22;53063;39.614;8.814;2023-01-15T00:01:26;10.20;99.90
66271;DHT22;53063;39.614;8.814;2023-01-15T00:03:53;10.30;99.90
66271;DHT22;53063;39.614;8.814;2023-01-15T00:06:20;10.20;99.90
66271;DHT22;53063;39.614;8.814;2023-01-15T00:08:47;10.30;99.90
66271;DHT22;53063;39.614;8.814;2023-01-15T00:11:13;10.30;99.90
66271;DHT22;53063;39.614;8.814;2023-01-15T00:13:40;10.30;99.90
66271;DHT22;53063;39.614;8.814;2023-01-15T00:16:09;10.20;99.90
66271;DHT22;53063;39.614;8.814;2023-01-15T00:18:35;10.30;99.90
66271;DHT22;53063;39.614;8.814;2023-01-15T00:21:02;10.40;99.90
66271;DHT22;53063;39.614;8.814;2023-01-15T00:23:29;10.50;99.90
66271;DHT22;53063;39.614;8.814;2023-01-15T00:26:18;10.50;99.90
66271;DHT22;53063;39.614;8.814;2023-01-15T00:29:03;10.50;99.90
66271;DHT22;53063;39.614;8.814;2023-01-15T00:31:30;10.50;99.90
66271;DHT22;53063;39.614;8.814;2023-01-15T00:33:57;10.20;99.90
66271;DHT22;53063;39.614;8.814;2023-01-15T00:36:23;9.70;99.90
66271;DHT22;53063;39.614;8.814;2023-01-15T00:38:50;9.70;99.90
66271;DHT22;53063;39.614;8.814;2023-01-15T00:41:17;9.70;99.90
66271;DHT22;53063;39.614;8.814;2023-01-15T00:43:43;9.60;99.90
66271;DHT22;53063;39.614;8.814;2023-01-15T00:46:09;9.50;99.90
66271;DHT22;53063;39.614;8.814;2023-01-15T00:48:35;9.70;99.90
66271;DHT22;53063;39.614;8.814;2023-01-15T00:51:02;9.80;99.90
66271;DHT22;53063;39.614;8.814;2023-01-15T00:53:29;10.00;99.90
66271;DHT22;53063;39.614;8.814;2023-01-15T00:55:55;10.10;99.90
66271;DHT22;53063;39.614;8.814;2023-01-15T00:58:21;10.10;99.90
66271;DHT22;53063;39.614;8.814;2023-01-15T01:00:55;10.10;99.90
66271;DHT22;53063;39.614;8.814;2023-01-15T01:03:22;10.10;99.90
66271;DHT22;53063;39.614;8.814;2023-01-15T01:05:48;9.90;99.90
66271;DHT22;53063;39.614;8.814;2023-01-15T01:08:15;9.80;99.90
66271;DHT22;53063;39.614;8.814;2023-01-15T01:10:41;9.90;99.90
66271;DHT22;53063;39.614;8.814;2023-01-15T01:13:07;9.80;99.90
66271;DHT22;53063;39.614;8.814;2023-01-15T01:15:34;9.50;99.90
66271;DHT22;53063;39.614;8.814;2023-01-15T01:18:00;9.50;99.90
66271;DHT22;53063;39.614;8.814;2023-01-15T01:20:26;9.30;99.90
66271;DHT22;53063;39.614;8.814;2023-01-15T01:22:52;9.10;99.90
66271;DHT22;53063;39.614;8.814;2023-01-15T01:25:19;9.00;99.90
66271;DHT22;53063;39.614;8.814;2023-01-15T01:27:45;8.90;99.90
66271;DHT22;53063;39.614;8.814;2023-01-15T01:30:12;8.70;99.90
66271;DHT22;53063;39.614;8.814;2023-01-15T01:32:42;8.70;99.90
66271;DHT22;53063;39.614;8.814;2023-01-15T01:35:08;8.80;99.90
66271;DHT22;53063;39.614;8.814;2023-01-15T01:37:34;8.60;99.90
66271;DHT22;53063;39.614;8.814;2023-01-15T01:40:00;8.60;99.90
66271;DHT22;53063;39.614;8.814;2023-01-15T01:42:26;8.60;99.90
66271;DHT22;53063;39.614;8.814;2023-01-15T01:45:03;8.80;99.90
66271;DHT22;53063;39.614;8.814;2023-01-15T01:47:32;8.80;99.90
66271;DHT22;53063;39.614;8.814;2023-01-15T01:50:04;9.00;99.90
66271;DHT22;53063;39.614;8.814;2023-01-15T01:52:37;8.90;99.90
66271;DHT22;53063;39.614;8.814;2023-01-15T01:55:05;9.00;99.90
66271;DHT22;53063;39.614;8.814;2023-01-15T01:57:32;9.00;99.90
66271;DHT22;53063;39.614;8.814;2023-01-15T02:00:00;9.10;99.90
66271;DHT22;53063;39.614;8.814;2023-01-15T02:02:26;9.00;99.90
66271;DHT22;53063;39.614;8.814;2023-01-15T02:04:53;9.10;99.90
66271;DHT22;53063;39.614;8.814;2023-01-15T02:07:19;9.20;99.90
66271;DHT22;53063;39.614;8.814;2023-01-15T02:09:45;9.30;99.90
66271;DHT22;53063;39.614;8.814;2023-01-15T02:12:33;9.30;99.90
66271;DHT22;53063;39.614;8.814;2023-01-15T02:15:26;9.30;99.90
66271;DHT22;53063;39.614;8.814;2023-01-15T02:18:21;9.40;99.90
66271;DHT22;53063;39.614;8.814;2023-01-15T02:21:04;9.40;99.90
66271;DHT22;53063;39.614;8.814;2023-01-15T02:28:44;9.80;99.90
66271;DHT22;53063;39.614;8.814;2023-01-15T02:33:55;9.90;99.90
66271;DHT22;53063;39.614;8.814;2023-01-15T02:36:25;10.00;99.90
66271;DHT22;53063;39.614;8.814;2023-01-15T02:38:58;10.10;99.90
66271;DHT22;53063;39.614;8.814;2023-01-15T02:41:32;10.00;99.90
66271;DHT22;53063;39.614;8.814;2023-01-15T02:44:01;10.00;99.90
66271;DHT22;53063;39.614;8.814;2023-01-15T02:46:30;10.00;99.90
66271;DHT22;53063;39.614;8.814;2023-01-15T02:48:59;10.10;99.90
66271;DHT22;53063;39.614;8.814;2023-01-15T02:51:36;10.00;99.90
66271;DHT22;53063;39.614;8.814;2023-01-15T02:54:08;10.10;99.90
66271;DHT22;53063;39.614;8.814;2023-01-15T02:56:36;10.20;99.90
66271;DHT22;53063;39.614;8.814;2023-01-15T02:59:09;10.00;99.90
66271;DHT22;53063;39.614;8.814;2023-01-15T03:01:43;9.60;99.90
66271;DHT22;53063;39.614;8.814;2023-01-15T03:09:19;9.00;99.90
66271;DHT22;53063;39.614;8.814;2023-01-15T03:17:18;9.60;99.90
66271;DHT22;53063;39.614;8.814;2023-01-15T03:20:04;9.60;99.90
66271;DHT22;53063;39.614;8.814;2023-01-15T03:22:36;9.40;99.90
66271;DHT22;53063;39.614;8.814;2023-01-15T03:27:44;9.60;99.90
66271;DHT22;53063;39.614;8.814;2023-01-15T03:30:20;9.70;99.90
66271;DHT22;53063;39.614;8.814;2023-01-15T03:32:48;9.40;99.90
66271;DHT22;53063;39.614;8.814;2023-01-15T03:38:11;9.10;99.90
66271;DHT22;53063;39.614;8.814;2023-01-15T03:40:48;9.20;99.90
66271;DHT22;53063;39.614;8.814;2023-01-15T03:43:20;9.20;99.90
66271;DHT22;53063;39.614;8.814;2023-01-15T03:55:13;9.20;99.90
66271;DHT22;53063;39.614;8.814;2023-01-15T03:58:00;9.00;99.90
66271;DHT22;53063;39.614;8.814;2023-01-15T04:00:37;9.20;99.90
66271;DHT22;53063;39.614;8.814;2023-01-15T04:03:06;9.00;99.90
66271;DHT22;53063;39.614;8.814;2023-01-15T04:05:36;8.80;99.90
66271;DHT22;53063;39.614;8.814;2023-01-15T04:08:03;8.80;99.90
66271;DHT22;53063;39.614;8.814;2023-01-15T04:10:31;9.00;99.90
66271;DHT22;53063;39.614;8.814;2023-01-15T04:12:59;9.10;99.90
66271;DHT22;53063;39.614;8.814;2023-01-15T04:15:25;9.30;99.90
66271;DHT22;53063;39.614;8.814;2023-01-15T04:17:51;9.50;99.90
66271;DHT22;53063;39.614;8.814;2023-01-15T04:20:17;9.70;99.90
66271;DHT22;53063;39.614;8.814;2023-01-15T04:22:44;9.80;99.90
66271;DHT22;53063;39.614;8.814;2023-01-15T04:25:10;9.90;99.90
66271;DHT22;53063;39.614;8.814;2023-01-15T04:27:36;10.00;99.90
66271;DHT22;53063;39.614;8.814;2023-01-15T04:30:03;9.90;99.90
66271;DHT22;53063;39.614;8.814;2023-01-15T04:32:29;9.90;99.90
66271;DHT22;53063;39.614;8.814;2023-01-15T04:34:54;10.00;99.90
66271;DHT22;53063;39.614;8.814;2023-01-15T04:37:20;9.90;99.90
66271;DHT22;53063;39.614;8.814;2023-01-15T04:39:46;10.00;99.90
66271;DHT22;53063;39.614;8.814;2023-01-15T04:42:13;10.10;99.90
66271;DHT22;53063;39.614;8.814;2023-01-15T04:44:57;10.00;99.90
66271;DHT22;53063;39.614;8.814;2023-01-15T04:47:23;10.00;99.90
66271;DHT22;53063;39.614;8.814;2023-01-15T04:49:49;9.90;99.90
66271;DHT22;53063;39.614;8.814;2023-01-15T04:52:15;10.00;99.90
66271;DHT22;53063;39.614;8.814;2023-01-15T04:54:41;10.20;99.90
66271;DHT22;53063;39.614;8.814;2023-01-15T04:57:07;10.20;99.90
66271;DHT22;53063;39.614;8.814;2023-01-15T04:59:33;10.10;99.90
66271;DHT22;53063;39.614;8.814;2023-01-15T05:01:59;9.90;99.90
66271;DHT22;53063;39.614;8.814;2023-01-15T05:04:25;9.80;99.90
66271;DHT22;53063;39.614;8.814;2023-01-15T05:06:50;9.90;99.90
66271;DHT22;53063;39.614;8.814;2023-01-15T05:09:18;10.00;99.90
66271;DHT22;53063;39.614;8.814;2023-01-15T05:11:43;10.00;99.90
66271;DHT22;53063;39.614;8.814;2023-01-15T05:14:09;10.00;99.90
66271;DHT22;53063;39.614;8.814;2023-01-15T05:16:35;10.00;99.90
66271;DHT22;53063;39.614;8.814;2023-01-15T05:19:04;9.90;99.90
66271;DHT22;53063;39.614;8.814;2023-01-15T05:21:34;9.80;99.90
66271;DHT22;53063;39.614;8.814;2023-01-15T05:24:02;9.90;99.90
66271;DHT22;53063;39.614;8.814;2023-01-15T05:26:30;10.00;99.90
66271;DHT22;53063;39.614;8.814;2023-01-15T05:28:58;10.00;99.90
66271;DHT22;53063;39.614;8.814;2023-01-15T05:31:24;10.00;99.90
66271;DHT22;53063;39.614;8.814;2023-01-15T05:33:52;10.10;99.90
66271;DHT22;53063;39.614;8.814;2023-01-15T05:36:21;10.20;99.90
66271;DHT22;53063;39.614;8.814;2023-01-15T05:38:49;10.10;99.90
66271;DHT22;53063;39.614;8.814;2023-01-15T05:41:17;10.00;99.90
66271;DHT22;53063;39.614;8.814;2023-01-15T05:44:04;10.20;99.90
66271;DHT22;53063;39.614;8.814;2023-01-15T05:46:31;10.30;99.90
66271;DHT22;53063;39.614;8.814;2023-01-15T05:49:06;10.30;99.90
66271;DHT22;53063;39.614;8.814;2023-01-15T05:51:36;10.40;99.90
66271;DHT22;53063;39.614;8.814;2023-01-15T05:54:03;10.50;99.90
66271;DHT22;53063;39.614;8.814;2023-01-15T05:56:30;10.10;99.90
66271;DHT22;53063;39.614;8.814;2023-01-15T05:58:56;10.10;99.90
66271;DHT22;53063;39.614;8.814;2023-01-15T06:01:22;10.30;99.90
66271;DHT22;53063;39.614;8.814;2023-01-15T06:03:48;10.30;99.90
66271;DHT22;53063;39.614;8.814;2023-01-15T06:06:16;10.30;99.90
66271;DHT22;53063;39.614;8.814;2023-01-15T06:08:43;10.30;99.90
66271;DHT22;53063;39.614;8.814;2023-01-15T06:11:09;10.40;99.90
66271;DHT22;53063;39.614;8.814;2023-01-15T06:13:36;10.50;99.90
66271;DHT22;53063;39.614;8.814;2023-01-15T06:16:04;10.60;99.90
66271;DHT22;53063;39.614;8.814;2023-01-15T06:18:30;10.60;99.90
66271;DHT22;53063;39.614;8.814;2023-01-15T06:21:02;10.60;99.90
66271;DHT22;53063;39.614;8.814;2023-01-15T06:23:29;10.60;99.90
66271;DHT22;53063;39.614;8.814;2023-01-15T06:25:59;10.70;99.90
66271;DHT22;53063;39.614;8.814;2023-01-15T06:28:26;10.70;99.90
66271;DHT22;53063;39.614;8.814;2023-01-15T06:30:52;10.70;99.90
66271;DHT22;53063;39.614;8.814;2023-01-15T06:33:17;10.60;99.90
66271;DHT22;53063;39.614;8.814;2023-01-15T06:35:43;10.50;99.90
66271;DHT22;53063;39.614;8.814;2023-01-15T06:38:09;10.20;99.90
66271;DHT22;53063;39.614;8.814;2023-01-15T06:40:35;10.10;99.90
66271;DHT22;53063;39.614;8.814;2023-01-15T06:43:01;10.50;99.90
66271;DHT22;53063;39.614;8.814;2023-01-15T06:45:46;10.60;99.90
66271;DHT22;53063;39.614;8.814;2023-01-15T06:48:50;10.70;99.90
66271;DHT22;53063;39.614;8.814;2023-01-15T06:51:16;10.60;99.90
66271;DHT22;53063;39.614;8.814;2023-01-15T06:53:45;10.70;99.90
66271;DHT22;53063;39.614;8.814;2023-01-15T06:56:14;10.60;99.90
66271;DHT22;53063;39.614;8.814;2023-01-15T06:58:41;10.60;99.90
66271;DHT22;53063;39.614;8.814;2023-01-15T07:01:12;10.70;99.90
66271;DHT22;53063;39.614;8.814;2023-01-15T07:03:38;10.80;99.90
66271;DHT22;53063;39.614;8.814;2023-01-15T07:06:06;10.70;99.90
66271;DHT22;53063;39.614;8.814;2023-01-15T07:08:32;10.30;99.90
66271;DHT22;53063;39.614;8.814;2023-01-15T07:11:03;10.20;99.90
66271;DHT22;53063;39.614;8.814;2023-01-15T07:13:29;10.50;99.90
66271;DHT22;53063;39.614;8.814;2023-01-15T07:15:57;10.60;99.90
66271;DHT22;53063;39.614;8.814;2023-01-15T07:18:24;10.50;99.90
66271;DHT22;53063;39.614;8.814;2023-01-15T07:20:54;10.60;99.90
66271;DHT22;53063;39.614;8.814;2023-01-15T07:23:22;10.90;99.90
66271;DHT22;53063;39.614;8.814;2023-01-15T07:25:48;10.90;99.90
66271;DHT22;53063;39.614;8.814;2023-01-15T07:28:14;11.00;99.90
66271;DHT22;53063;39.614;8.814;2023-01-15T07:30:40;11.00;99.90
66271;DHT22;53063;39.614;8.814;2023-01-15T07:33:06;11.10;99.90
66271;DHT22;53063;39.614;8.814;2023-01-15T07:35:32;11.20;99.90
66271;DHT22;53063;39.614;8.814;2023-01-15T07:38:00;11.50;99.90
66271;DHT22;53063;39.614;8.814;2023-01-15T07:40:26;11.80;99.90
66271;DHT22;53063;39.614;8.814;2023-01-15T07:42:52;12.10;99.90
66271;DHT22;53063;39.614;8.814;2023-01-15T07:45:38;12.40;99.90
66271;DHT22;53063;39.614;8.814;2023-01-15T07:48:24;12.00;99.90
66271;DHT22;53063;39.614;8.814;2023-01-15T07:51:09;12.40;99.90
66271;DHT22;53063;39.614;8.814;2023-01-15T07:53:35;13.30;99.90
66271;DHT22;53063;39.614;8.814;2023-01-15T07:56:01;13.70;99.90
66271;DHT22;53063;39.614;8.814;2023-01-15T07:58:27;14.40;99.90
66271;DHT22;53063;39.614;8.814;2023-01-15T08:00:53;15.20;99.90
66271;DHT22;53063;39.614;8.814;2023-01-15T08:03:19;14.80;99.80
66271;DHT22;53063;39.614;8.814;2023-01-15T08:05:44;14.70;99.90
66271;DHT22;53063;39.614;8.814;2023-01-15T08:08:14;14.90;99.90
66271;DHT22;53063;39.614;8.814;2023-01-15T08:10:40;15.20;99.90
66271;DHT22;53063;39.614;8.814;2023-01-15T08:13:25;15.90;96.70
66271;DHT22;53063;39.614;8.814;2023-01-15T08:16:09;15.20;95.20
66271;DHT22;53063;39.614;8.814;2023-01-15T08:18:36;15.30;97.40
66271;DHT22;53063;39.614;8.814;2023-01-15T08:21:02;15.00;97.50
66271;DHT22;53063;39.614;8.814;2023-01-15T08:23:28;14.70;97.70
66271;DHT22;53063;39.614;8.814;2023-01-15T08:25:57;14.40;98.90
66271;DHT22;53063;39.614;8.814;2023-01-15T08:28:23;14.40;98.90
66271;DHT22;53063;39.614;8.814;2023-01-15T08:30:49;14.30;99.90
66271;DHT22;53063;39.614;8.814;2023-01-15T08:33:15;14.40;99.70
66271;DHT22;53063;39.614;8.814;2023-01-15T08:35:41;14.30;99.90
66271;DHT22;53063;39.614;8.814;2023-01-15T08:38:07;14.40;99.90
66271;DHT22;53063;39.614;8.814;2023-01-15T08:40:34;14.40;99.90
66271;DHT22;53063;39.614;8.814;2023-01-15T08:43:21;14.30;99.90
66271;DHT22;53063;39.614;8.814;2023-01-15T08:45:47;14.40;99.90
66271;DHT22;53063;39.614;8.814;2023-01-15T08:48:12;14.60;99.90
66271;DHT22;53063;39.614;8.814;2023-01-15T08:50:38;14.40;99.90
66271;DHT22;53063;39.614;8.814;2023-01-15T08:53:04;14.10;99.90
66271;DHT22;53063;39.614;8.814;2023-01-15T08:55:30;14.40;99.90
66271;DHT22;53063;39.614;8.814;2023-01-15T08:57:57;14.90;99.90
66271;DHT22;53063;39.614;8.814;2023-01-15T09:00:23;14.90;99.90
66271;DHT22;53063;39.614;8.814;2023-01-15T09:02:49;14.30;99.90
66271;DHT22;53063;39.614;8.814;2023-01-15T09:05:16;14.40;99.90
66271;DHT22;53063;39.614;8.814;2023-01-15T09:07:42;14.60;99.90
66271;DHT22;53063;39.614;8.814;2023-01-15T09:10:08;14.50;99.90
66271;DHT22;53063;39.614;8.814;2023-01-15T09:12:34;15.50;99.90
66271;DHT22;53063;39.614;8.814;2023-01-15T09:15:00;16.00;97.20
66271;DHT22;53063;39.614;8.814;2023-01-15T09:17:26;16.30;97.00
66271;DHT22;53063;39.614;8.814;2023-01-15T09:19:52;16.60;94.40
66271;DHT22;53063;39.614;8.814;2023-01-15T09:22:18;15.20;96.90
66271;DHT22;53063;39.614;8.814;2023-01-15T09:24:44;15.10;97.20
66271;DHT22;53063;39.614;8.814;2023-01-15T09:27:11;15.30;99.90
66271;DHT22;53063;39.614;8.814;2023-01-15T09:29:37;15.40;97.60
66271;DHT22;53063;39.614;8.814;2023-01-15T09:32:02;15.70;98.10
66271;DHT22;53063;39.614;8.814;2023-01-15T09:34:29;17.30;96.50
66271;DHT22;53063;39.614;8.814;2023-01-15T09:36:54;19.60;87.40
66271;DHT22;53063;39.614;8.814;2023-01-15T09:39:20;20.30;77.70
66271;DHT22;53063;39.614;8.814;2023-01-15T09:55:48;24.50;53.10
66271;DHT22;53063;39.614;8.814;2023-01-15T09:58:17;23.70;53.40
66271;DHT22;53063;39.614;8.814;2023-01-15T10:00:47;24.30;54.80
66271;DHT22;53063;39.614;8.814;2023-01-15T10:03:37;22.80;55.10
66271;DHT22;53063;39.614;8.814;2023-01-15T10:08:47;23.40;53.00
66271;DHT22;53063;39.614;8.814;2023-01-15T10:16:22;23.10;53.50
66271;DHT22;53063;39.614;8.814;2023-01-15T10:18:48;24.20;51.20
66271;DHT22;53063;39.614;8.814;2023-01-15T10:21:51;24.20;51.60
66271;DHT22;53063;39.614;8.814;2023-01-15T10:24:37;26.80;50.40
66271;DHT22;53063;39.614;8.814;2023-01-15T10:27:22;27.80;44.80
66271;DHT22;53063;39.614;8.814;2023-01-15T10:29:53;27.20;45.80
66271;DHT22;53063;39.614;8.814;2023-01-15T10:45:33;29.10;42.40
66271;DHT22;53063;39.614;8.814;2023-01-15T10:50:35;26.10;46.00
66271;DHT22;53063;39.614;8.814;2023-01-15T10:53:08;26.60;44.40
66271;DHT22;53063;39.614;8.814;2023-01-15T10:55:50;26.40;45.80
66271;DHT22;53063;39.614;8.814;2023-01-15T11:00:57;22.20;54.30
66271;DHT22;53063;39.614;8.814;2023-01-15T11:03:39;20.60;57.70
66271;DHT22;53063;39.614;8.814;2023-01-15T11:06:12;20.20;62.60
66271;DHT22;53063;39.614;8.814;2023-01-15T11:08:42;19.80;65.20
66271;DHT22;53063;39.614;8.814;2023-01-15T11:11:22;20.00;66.20
66271;DHT22;53063;39.614;8.814;2023-01-15T11:14:08;19.80;65.80
66271;DHT22;53063;39.614;8.814;2023-01-15T11:16:53;18.80;68.60
66271;DHT22;53063;39.614;8.814;2023-01-15T11:19:39;18.30;71.50
66271;DHT22;53063;39.614;8.814;2023-01-15T11:24:54;18.10;73.30
66271;DHT22;53063;39.614;8.814;2023-01-15T11:27:23;17.90;73.50
66271;DHT22;53063;39.614;8.814;2023-01-15T11:29:55;17.60;75.60
66271;DHT22;53063;39.614;8.814;2023-01-15T11:32:33;17.90;75.20
66271;DHT22;53063;39.614;8.814;2023-01-15T11:35:02;18.60;74.00
66271;DHT22;53063;39.614;8.814;2023-01-15T11:37:29;18.80;72.20
66271;DHT22;53063;39.614;8.814;2023-01-15T11:39:56;19.40;70.20
66271;DHT22;53063;39.614;8.814;2023-01-15T11:42:25;19.60;66.50
66271;DHT22;53063;39.614;8.814;2023-01-15T11:45:15;19.30;67.80
66271;DHT22;53063;39.614;8.814;2023-01-15T11:48:00;18.80;68.60
66271;DHT22;53063;39.614;8.814;2023-01-15T11:50:59;19.00;70.10
66271;DHT22;53063;39.614;8.814;2023-01-15T11:53:27;19.70;66.50
66271;DHT22;53063;39.614;8.814;2023-01-15T11:55:59;19.30;65.40
66271;DHT22;53063;39.614;8.814;2023-01-15T11:58:33;18.20;68.10
66271;DHT22;53063;39.614;8.814;2023-01-15T12:01:03;18.40;67.60
66271;DHT22;53063;39.614;8.814;2023-01-15T12:03:30;18.50;67.30
66271;DHT22;53063;39.614;8.814;2023-01-15T12:06:04;18.50;67.60
66271;DHT22;53063;39.614;8.814;2023-01-15T12:16:46;19.20;64.90
66271;DHT22;53063;39.614;8.814;2023-01-15T12:25:25;18.50;67.60
66271;DHT22;53063;39.614;8.814;2023-01-15T12:28:16;18.60;68.00
66271;DHT22;53063;39.614;8.814;2023-01-15T12:30:45;18.90;67.00
66271;DHT22;53063;39.614;8.814;2023-01-15T12:35:55;18.20;67.20
66271;DHT22;53063;39.614;8.814;2023-01-15T12:38:35;18.00;67.70
66271;DHT22;53063;39.614;8.814;2023-01-15T12:41:12;17.50;69.10
66271;DHT22;53063;39.614;8.814;2023-01-15T12:43:46;17.60;69.40
66271;DHT22;53063;39.614;8.814;2023-01-15T12:46:33;17.60;71.10
66271;DHT22;53063;39.614;8.814;2023-01-15T12:49:08;18.00;70.10
66271;DHT22;53063;39.614;8.814;2023-01-15T12:51:52;17.70;71.00
66271;DHT22;53063;39.614;8.814;2023-01-15T12:54:29;17.60;71.80
66271;DHT22;53063;39.614;8.814;2023-01-15T12:57:37;17.50;72.40
66271;DHT22;53063;39.614;8.814;2023-01-15T13:05:19;16.90;74.90
66271;DHT22;53063;39.614;8.814;2023-01-15T13:07:58;17.00;75.60
66271;DHT22;53063;39.614;8.814;2023-01-15T13:10:27;16.90;75.80
66271;DHT22;53063;39.614;8.814;2023-01-15T13:13:01;16.80;76.30
66271;DHT22;53063;39.614;8.814;2023-01-15T13:15:37;16.90;76.80
66271;DHT22;53063;39.614;8.814;2023-01-15T13:21:17;17.30;75.10
66271;DHT22;53063;39.614;8.814;2023-01-15T13:30:07;17.20;73.50
66271;DHT22;53063;39.614;8.814;2023-01-15T13:32:50;17.60;72.20
66271;DHT22;53063;39.614;8.814;2023-01-15T13:37:53;17.70;71.50
66271;DHT22;53063;39.614;8.814;2023-01-15T13:40:38;17.20;72.10
66271;DHT22;53063;39.614;8.814;2023-01-15T13:43:07;17.40;74.10
66271;DHT22;53063;39.614;8.814;2023-01-15T13:48:15;17.00;74.30
66271;DHT22;53063;39.614;8.814;2023-01-15T13:50:57;17.30;76.30
66271;DHT22;53063;39.614;8.814;2023-01-15T13:53:44;17.10;75.00
66271;DHT22;53063;39.614;8.814;2023-01-15T13:56:13;17.20;76.40
66271;DHT22;53063;39.614;8.814;2023-01-15T13:58:57;17.00;75.90
66271;DHT22;53063;39.614;8.814;2023-01-15T14:09:12;16.80;78.60
66271;DHT22;53063;39.614;8.814;2023-01-15T14:32:34;17.90;71.00
66271;DHT22;53063;39.614;8.814;2023-01-15T14:35:14;17.70;73.70
66271;DHT22;53063;39.614;8.814;2023-01-15T14:40:29;18.30;70.20
66271;DHT22;53063;39.614;8.814;2023-01-15T14:43:00;17.70;72.90
66271;DHT22;53063;39.614;8.814;2023-01-15T14:45:41;17.20;75.90
66271;DHT22;53063;39.614;8.814;2023-01-15T14:50:52;16.80;78.70
66271;DHT22;53063;39.614;8.814;2023-01-15T14:56:19;16.40;81.20
66271;DHT22;53063;39.614;8.814;2023-01-15T15:01:56;16.10;82.10
66271;DHT22;53063;39.614;8.814;2023-01-15T15:04:42;15.90;82.80
66271;DHT22;53063;39.614;8.814;2023-01-15T15:07:15;16.00;83.00
66271;DHT22;53063;39.614;8.814;2023-01-15T15:12:36;16.10;83.50
66271;DHT22;53063;39.614;8.814;2023-01-15T15:16:10;16.00;84.30
66271;DHT22;53063;39.614;8.814;2023-01-15T15:18:23;15.70;85.70
66271;DHT22;53063;39.614;8.814;2023-01-15T15:21:00;15.80;86.90
66271;DHT22;53063;39.614;8.814;2023-01-15T15:23:36;15.90;86.80
66271;DHT22;53063;39.614;8.814;2023-01-15T15:26:05;15.80;87.00
66271;DHT22;53063;39.614;8.814;2023-01-15T15:28:40;15.80;87.30
66271;DHT22;53063;39.614;8.814;2023-01-15T15:31:08;15.70;87.10
66271;DHT22;53063;39.614;8.814;2023-01-15T15:33:39;15.60;87.90
66271;DHT22;53063;39.614;8.814;2023-01-15T15:36:07;15.60;88.50
66271;DHT22;53063;39.614;8.814;2023-01-15T15:38:33;15.50;89.50
66271;DHT22;53063;39.614;8.814;2023-01-15T15:41:04;15.60;90.00
66271;DHT22;53063;39.614;8.814;2023-01-15T15:43:50;15.50;90.40
66271;DHT22;53063;39.614;8.814;2023-01-15T15:46:36;15.40;90.80
66271;DHT22;53063;39.614;8.814;2023-01-15T15:49:20;15.40;90.40
66271;DHT22;53063;39.614;8.814;2023-01-15T15:51:51;15.30;90.40
66271;DHT22;53063;39.614;8.814;2023-01-15T15:54:25;15.20;90.30
66271;DHT22;53063;39.614;8.814;2023-01-15T15:57:12;15.10;90.40
66271;DHT22;53063;39.614;8.814;2023-01-15T15:59:47;15.00;90.60
66271;DHT22;53063;39.614;8.814;2023-01-15T16:04:44;14.70;91.00
66271;DHT22;53063;39.614;8.814;2023-01-15T16:07:12;14.70;91.70
66271;DHT22;53063;39.614;8.814;2023-01-15T16:09:39;14.70;92.10
66271;DHT22;53063;39.614;8.814;2023-01-15T16:12:08;14.60;92.60
66271;DHT22;53063;39.614;8.814;2023-01-15T16:14:37;14.70;93.20
66271;DHT22;53063;39.614;8.814;2023-01-15T16:17:03;14.80;92.80
66271;DHT22;53063;39.614;8.814;2023-01-15T16:19:29;14.70;93.40
66271;DHT22;53063;39.614;8.814;2023-01-15T16:21:55;14.80;93.70
66271;DHT22;53063;39.614;8.814;2023-01-15T16:24:25;14.70;94.20
66271;DHT22;53063;39.614;8.814;2023-01-15T16:26:56;14.80;94.60
66271;DHT22;53063;39.614;8.814;2023-01-15T16:29:26;14.80;94.60
66271;DHT22;53063;39.614;8.814;2023-01-15T16:31:52;14.70;94.90
66271;DHT22;53063;39.614;8.814;2023-01-15T16:34:24;14.70;95.10
66271;DHT22;53063;39.614;8.814;2023-01-15T16:36:51;14.60;96.30
66271;DHT22;53063;39.614;8.814;2023-01-15T16:41:47;14.40;98.40
66271;DHT22;53063;39.614;8.814;2023-01-15T16:44:38;14.40;99.20
66271;DHT22;53063;39.614;8.814;2023-01-15T16:47:24;14.30;99.90
66271;DHT22;53063;39.614;8.814;2023-01-15T16:49:50;14.30;99.90
66271;DHT22;53063;39.614;8.814;2023-01-15T16:58:16;14.00;99.90
66271;DHT22;53063;39.614;8.814;2023-01-15T17:00:45;14.00;99.90
66271;DHT22;53063;39.614;8.814;2023-01-15T17:03:13;14.00;99.90
66271;DHT22;53063;39.614;8.814;2023-01-15T17:05:39;14.00;99.90
66271;DHT22;53063;39.614;8.814;2023-01-15T17:08:17;14.00;99.90
66271;DHT22;53063;39.614;8.814;2023-01-15T17:11:01;14.00;99.90
66271;DHT22;53063;39.614;8.814;2023-01-15T17:13:37;13.80;99.90
66271;DHT22;53063;39.614;8.814;2023-01-15T17:16:24;13.80;99.90
66271;DHT22;53063;39.614;8.814;2023-01-15T17:18:50;13.80;99.90
66271;DHT22;53063;39.614;8.814;2023-01-15T17:21:19;13.80;99.90
66271;DHT22;53063;39.614;8.814;2023-01-15T17:23:48;13.70;99.90
66271;DHT22;53063;39.614;8.814;2023-01-15T17:26:23;13.70;99.90
66271;DHT22;53063;39.614;8.814;2023-01-15T17:28:50;13.80;99.90
66271;DHT22;53063;39.614;8.814;2023-01-15T17:31:26;13.60;99.90
66271;DHT22;53063;39.614;8.814;2023-01-15T17:33:54;13.50;99.90
66271;DHT22;53063;39.614;8.814;2023-01-15T17:36:21;13.40;99.90
66271;DHT22;53063;39.614;8.814;2023-01-15T17:38:47;13.30;99.90
66271;DHT22;53063;39.614;8.814;2023-01-15T17:41:14;13.20;99.90
66271;DHT22;53063;39.614;8.814;2023-01-15T17:43:40;13.30;99.90
66271;DHT22;53063;39.614;8.814;2023-01-15T17:46:07;13.50;99.90
66271;DHT22;53063;39.614;8.814;2023-01-15T17:48:33;13.30;99.90
66271;DHT22;53063;39.614;8.814;2023-01-15T17:51:00;13.30;99.90
66271;DHT22;53063;39.614;8.814;2023-01-15T17:53:26;13.40;99.90
66271;DHT22;53063;39.614;8.814;2023-01-15T17:55:52;13.40;99.90
66271;DHT22;53063;39.614;8.814;2023-01-15T17:58:37;13.40;99.90
66271;DHT22;53063;39.614;8.814;2023-01-15T18:01:24;13.40;99.90
66271;DHT22;53063;39.614;8.814;2023-01-15T18:04:26;13.40;99.90
66271;DHT22;53063;39.614;8.814;2023-01-15T18:07:13;13.40;99.90
66271;DHT22;53063;39.614;8.814;2023-01-15T18:09:39;13.40;99.90
66271;DHT22;53063;39.614;8.814;2023-01-15T18:12:05;13.40;99.90
66271;DHT22;53063;39.614;8.814;2023-01-15T18:14:31;13.40;99.90
66271;DHT22;53063;39.614;8.814;2023-01-15T18:16:57;13.50;99.90
66271;DHT22;53063;39.614;8.814;2023-01-15T18:19:23;13.50;99.90
66271;DHT22;53063;39.614;8.814;2023-01-15T18:21:49;13.40;99.90
66271;DHT22;53063;39.614;8.814;2023-01-15T18:24:15;13.40;99.90
66271;DHT22;53063;39.614;8.814;2023-01-15T18:26:41;13.40;99.90
66271;DHT22;53063;39.614;8.814;2023-01-15T18:29:09;13.40;99.90
66271;DHT22;53063;39.614;8.814;2023-01-15T18:31:36;13.50;99.90
66271;DHT22;53063;39.614;8.814;2023-01-15T18:34:02;13.50;99.90
66271;DHT22;53063;39.614;8.814;2023-01-15T18:36:29;13.60;99.90
66271;DHT22;53063;39.614;8.814;2023-01-15T18:38:54;13.60;99.90
66271;DHT22;53063;39.614;8.814;2023-01-15T18:41:26;13.60;99.90
66271;DHT22;53063;39.614;8.814;2023-01-15T18:44:21;13.70;99.90
66271;DHT22;53063;39.614;8.814;2023-01-15T18:47:12;13.70;99.90